createdAt,value
2019-04-03T00:00:25.716Z,928.23
2019-04-03T00:01:25.764Z,928.22
2019-04-03T00:02:25.842Z,928.23
2019-04-03T00:03:25.859Z,928.25
2019-04-03T00:04:25.909Z,928.28
2019-04-03T00:05:25.964Z,928.27
2019-04-03T00:06:26.023Z,928.29
2019-04-03T00:07:26.042Z,928.28
2019-04-03T00:08:26.089Z,928.27
2019-04-03T00:09:26.146Z,928.27
2019-04-03T00:10:26.193Z,928.28
2019-04-03T00:11:26.230Z,928.28
2019-04-03T00:12:26.298Z,928.29
2019-04-03T00:13:26.331Z,928.29
2019-04-03T00:14:26.369Z,928.29
2019-04-03T00:15:26.405Z,928.33
2019-04-03T00:16:26.524Z,928.34
2019-04-03T00:17:26.507Z,928.36
2019-04-03T00:18:26.541Z,928.33
2019-04-03T00:19:26.617Z,928.31
2019-04-03T00:20:26.631Z,928.36
2019-04-03T00:21:26.685Z,928.33
2019-04-03T00:22:26.751Z,928.33
2019-04-03T00:23:26.782Z,928.35
2019-04-03T00:24:27.030Z,928.33
2019-04-03T00:25:26.899Z,928.35
2019-04-03T00:26:26.924Z,928.34
2019-04-03T00:27:26.978Z,928.30
2019-04-03T00:28:27.021Z,928.28
2019-04-03T00:29:27.167Z,928.29
2019-04-03T00:30:27.084Z,928.26
2019-04-03T00:31:27.155Z,928.28
2019-04-03T00:32:27.199Z,928.26
2019-04-03T00:33:27.238Z,928.26
2019-04-03T00:34:27.299Z,928.27
2019-04-03T00:35:27.327Z,928.26
2019-04-03T00:36:27.422Z,928.28
2019-04-03T00:37:27.415Z,928.27
2019-04-03T00:38:27.486Z,928.27
2019-04-03T00:39:27.623Z,928.27
2019-04-03T00:40:27.590Z,928.30
2019-04-03T00:41:27.607Z,928.32
2019-04-03T00:42:27.665Z,928.32
2019-04-03T00:43:27.697Z,928.34
2019-04-03T00:44:27.730Z,928.31
2019-04-03T00:45:27.923Z,928.32
2019-04-03T00:46:27.835Z,928.32
2019-04-03T00:47:27.898Z,928.27
2019-04-03T00:48:27.912Z,928.28
2019-04-03T00:49:27.982Z,928.28
2019-04-03T00:50:28.041Z,928.27
2019-04-03T00:51:28.109Z,928.28
2019-04-03T00:52:28.145Z,928.26
2019-04-03T00:53:28.319Z,928.27
2019-04-03T00:54:30.733Z,928.27
2019-04-03T00:55:28.243Z,928.29
2019-04-03T00:56:28.291Z,928.27
2019-04-03T00:57:28.373Z,928.31
2019-04-03T00:58:28.371Z,928.31
2019-04-03T00:59:28.659Z,928.28
2019-04-03T01:00:28.477Z,928.27
2019-04-03T01:01:28.520Z,928.24
2019-04-03T01:02:28.767Z,928.26
2019-04-03T01:03:28.742Z,928.21
2019-04-03T01:04:29.102Z,928.18
2019-04-03T01:05:29.094Z,928.18
2019-04-03T01:06:29.045Z,928.15
2019-04-03T01:07:29.303Z,928.13
2019-04-03T01:08:29.424Z,928.11
2019-04-03T01:09:29.820Z,928.06
2019-04-03T01:10:29.638Z,928.07
2019-04-03T01:11:30.614Z,928.01
2019-04-03T01:12:31.303Z,928.00
2019-04-03T01:13:29.755Z,927.98
2019-04-03T01:14:31.290Z,927.96
2019-04-03T01:15:29.794Z,927.95
2019-04-03T01:16:29.231Z,927.96
2019-04-03T01:17:29.243Z,928.04
2019-04-03T01:18:29.293Z,928.00
2019-04-03T01:19:29.351Z,927.97
2019-04-03T01:20:29.395Z,928.00
2019-04-03T01:21:29.443Z,928.00
2019-04-03T01:22:29.473Z,927.99
2019-04-03T01:23:29.521Z,927.94
2019-04-03T01:24:29.597Z,927.89
2019-04-03T01:25:29.631Z,927.89
2019-04-03T01:26:29.675Z,927.87
2019-04-03T01:27:29.848Z,927.86
2019-04-03T01:28:29.741Z,927.82
2019-04-03T01:29:29.792Z,927.82
2019-04-03T01:30:29.859Z,927.81
2019-04-03T01:31:29.864Z,927.82
2019-04-03T01:32:29.943Z,927.80
2019-04-03T01:33:29.981Z,927.76
2019-04-03T01:34:30.027Z,927.76
2019-04-03T01:35:30.064Z,927.78
2019-04-03T01:36:30.172Z,927.76
2019-04-03T01:37:30.161Z,927.79
2019-04-03T01:38:30.272Z,927.75
2019-04-03T01:39:30.262Z,927.77
2019-04-03T01:40:30.309Z,927.77
2019-04-03T01:41:30.349Z,927.76
2019-04-03T01:42:30.384Z,927.76
2019-04-03T01:43:30.463Z,927.73
2019-04-03T01:44:30.494Z,927.72
2019-04-03T01:45:30.500Z,927.75
2019-04-03T01:46:30.581Z,927.72
2019-04-03T01:47:30.631Z,927.70
2019-04-03T01:48:30.662Z,927.69
2019-04-03T01:49:30.706Z,927.74
2019-04-03T01:50:30.856Z,927.68
2019-04-03T01:51:30.801Z,927.69
2019-04-03T01:52:31.837Z,927.68
2019-04-03T01:53:32.763Z,927.63
2019-04-03T01:54:31.772Z,927.61
2019-04-03T01:55:30.966Z,927.58
2019-04-03T01:56:31.002Z,927.58
2019-04-03T01:57:31.077Z,927.55
2019-04-03T01:58:31.127Z,927.52
2019-04-03T01:59:31.142Z,927.53
2019-04-03T02:00:31.181Z,927.54
2019-04-03T02:01:31.257Z,927.51
2019-04-03T02:02:31.302Z,927.53
2019-04-03T02:03:31.324Z,927.48
2019-04-03T02:04:31.392Z,927.49
2019-04-03T02:05:31.483Z,927.51
2019-04-03T02:06:31.456Z,927.50
2019-04-03T02:07:31.508Z,927.43
2019-04-03T02:08:31.562Z,927.46
2019-04-03T02:09:31.609Z,927.42
2019-04-03T02:10:31.703Z,927.41
2019-04-03T02:11:31.694Z,927.41
2019-04-03T02:12:31.861Z,927.43
2019-04-03T02:13:31.796Z,927.37
2019-04-03T02:14:31.846Z,927.38
2019-04-03T02:15:31.876Z,927.37
2019-04-03T02:16:31.913Z,927.35
2019-04-03T02:17:31.953Z,927.34
2019-04-03T02:18:32.034Z,927.32
2019-04-03T02:19:32.055Z,927.37
2019-04-03T02:20:32.098Z,927.35
2019-04-03T02:21:32.140Z,927.40
2019-04-03T02:22:32.207Z,927.40
2019-04-03T02:23:32.379Z,927.41
2019-04-03T02:24:32.268Z,927.41
2019-04-03T02:25:32.534Z,927.38
2019-04-03T02:26:33.030Z,927.33
2019-04-03T02:27:33.299Z,927.32
2019-04-03T02:28:34.153Z,927.28
2019-04-03T02:29:32.589Z,927.29
2019-04-03T02:30:32.834Z,927.28
2019-04-03T02:31:32.599Z,927.29
2019-04-03T02:32:32.638Z,927.27
2019-04-03T02:33:32.692Z,927.28
2019-04-03T02:34:34.437Z,927.30
2019-04-03T02:35:32.757Z,927.30
2019-04-03T02:36:32.853Z,927.31
2019-04-03T02:37:32.874Z,927.33
2019-04-03T02:38:33.136Z,927.33
2019-04-03T02:39:33.342Z,927.25
2019-04-03T02:40:33.236Z,927.28
2019-04-03T02:41:35.320Z,927.28
2019-04-03T02:42:33.078Z,927.28
2019-04-03T02:43:33.147Z,927.29
2019-04-03T02:44:33.171Z,927.28
2019-04-03T02:45:33.223Z,927.31
2019-04-03T02:46:33.256Z,927.28
2019-04-03T02:47:34.145Z,927.25
2019-04-03T02:48:37.354Z,927.24
2019-04-03T02:49:33.415Z,927.25
2019-04-03T02:50:33.436Z,927.22
2019-04-03T02:51:33.493Z,927.21
2019-04-03T02:52:33.502Z,927.20
2019-04-03T02:53:33.586Z,927.14
2019-04-03T02:54:35.784Z,927.17
2019-04-03T02:55:33.662Z,927.16
2019-04-03T02:56:33.824Z,927.11
2019-04-03T02:57:33.795Z,927.08
2019-04-03T02:58:33.791Z,927.08
2019-04-03T02:59:34.015Z,927.06
2019-04-03T03:00:34.045Z,927.05
2019-04-03T03:01:34.034Z,927.06
2019-04-03T03:02:33.993Z,927.05
2019-04-03T03:03:34.009Z,927.01
2019-04-03T03:04:34.104Z,927.00
2019-04-03T03:05:34.088Z,926.97
2019-04-03T03:06:34.164Z,926.98
2019-04-03T03:07:36.351Z,926.95
2019-04-03T03:08:34.254Z,926.96
2019-04-03T03:09:34.298Z,926.91
2019-04-03T03:10:34.351Z,926.91
2019-04-03T03:11:34.411Z,926.90
2019-04-03T03:12:34.428Z,926.89
2019-04-03T03:13:35.555Z,926.92
2019-04-03T03:14:38.217Z,926.89
2019-04-03T03:15:34.684Z,926.87
2019-04-03T03:16:34.780Z,926.86
2019-04-03T03:17:34.627Z,926.85
2019-04-03T03:18:34.703Z,926.82
2019-04-03T03:19:34.856Z,926.81
2019-04-03T03:20:38.626Z,926.83
2019-04-03T03:21:34.847Z,926.82
2019-04-03T03:22:34.874Z,926.84
2019-04-03T03:23:34.913Z,926.82
2019-04-03T03:24:35.257Z,926.81
2019-04-03T03:25:34.999Z,926.82
2019-04-03T03:26:37.364Z,926.75
2019-04-03T03:27:35.122Z,926.80
2019-04-03T03:28:35.131Z,926.77
2019-04-03T03:29:35.189Z,926.79
2019-04-03T03:30:44.340Z,926.74
2019-04-03T03:32:03.026Z,926.74
2019-04-03T03:32:36.848Z,926.70
2019-04-03T03:33:38.817Z,926.71
2019-04-03T03:34:51.454Z,926.70
2019-04-03T03:35:41.894Z,926.69
2019-04-03T03:36:35.786Z,926.64
2019-04-03T03:37:35.710Z,926.60
2019-04-03T03:38:38.193Z,926.59
2019-04-03T03:39:35.657Z,926.57
2019-04-03T03:40:35.961Z,926.58
2019-04-03T03:41:35.725Z,926.54
2019-04-03T03:42:35.924Z,926.53
2019-04-03T03:43:38.416Z,926.57
2019-04-03T03:44:35.988Z,926.56
2019-04-03T03:45:35.943Z,926.62
2019-04-03T03:46:36.324Z,926.58
2019-04-03T03:47:36.465Z,926.60
2019-04-03T03:48:36.032Z,926.58
2019-04-03T03:49:36.063Z,926.65
2019-04-03T03:50:36.114Z,926.65
2019-04-03T03:51:36.153Z,926.65
2019-04-03T03:52:37.946Z,926.68
2019-04-03T03:53:36.225Z,926.64
2019-04-03T03:54:36.287Z,926.65
2019-04-03T03:55:36.450Z,926.67
2019-04-03T03:56:36.367Z,926.66
2019-04-03T03:57:39.133Z,926.68
2019-04-03T03:58:36.826Z,926.71
2019-04-03T03:59:36.498Z,926.68
2019-04-03T04:00:36.550Z,926.65
2019-04-03T04:01:36.594Z,926.63
2019-04-03T04:02:37.616Z,926.64
2019-04-03T04:03:38.540Z,926.63
2019-04-03T04:04:36.730Z,926.66
2019-04-03T04:05:36.787Z,926.66
2019-04-03T04:06:36.850Z,926.67
2019-04-03T04:07:38.113Z,926.67
2019-04-03T04:08:36.887Z,926.68
2019-04-03T04:09:36.947Z,926.65
2019-04-03T04:10:37.195Z,926.64
2019-04-03T04:11:37.384Z,926.67
2019-04-03T04:12:41.300Z,926.68
2019-04-03T04:13:37.126Z,926.67
2019-04-03T04:14:37.167Z,926.62
2019-04-03T04:15:37.206Z,926.64
2019-04-03T04:16:38.251Z,926.65
2019-04-03T04:17:37.283Z,926.65
2019-04-03T04:18:37.345Z,926.66
2019-04-03T04:19:37.406Z,926.67
2019-04-03T04:20:38.515Z,926.66
2019-04-03T04:21:37.484Z,926.69
2019-04-03T04:22:37.512Z,926.63
2019-04-03T04:23:37.619Z,926.67
2019-04-03T04:24:37.611Z,926.68
2019-04-03T04:25:37.814Z,926.68
2019-04-03T04:26:37.680Z,926.69
2019-04-03T04:27:39.001Z,926.66
2019-04-03T04:28:40.437Z,926.66
2019-04-03T04:29:37.816Z,926.64
2019-04-03T04:30:37.883Z,926.61
2019-04-03T04:31:37.907Z,926.60
2019-04-03T04:32:37.956Z,926.59
2019-04-03T04:33:38.000Z,926.57
2019-04-03T04:34:38.070Z,926.55
2019-04-03T04:35:38.137Z,926.56
2019-04-03T04:36:38.145Z,926.60
2019-04-03T04:37:40.207Z,926.60
2019-04-03T04:38:38.223Z,926.61
2019-04-03T04:39:38.256Z,926.58
2019-04-03T04:40:38.327Z,926.54
2019-04-03T04:41:38.349Z,926.50
2019-04-03T04:42:38.404Z,926.51
2019-04-03T04:43:39.401Z,926.54
2019-04-03T04:44:38.938Z,926.50
2019-04-03T04:45:38.546Z,926.46
2019-04-03T04:46:38.566Z,926.44
2019-04-03T04:47:38.627Z,926.42
2019-04-03T04:48:38.669Z,926.40
2019-04-03T04:49:38.834Z,926.39
2019-04-03T04:50:38.763Z,926.43
2019-04-03T04:51:38.808Z,926.43
2019-04-03T04:52:39.007Z,926.42
2019-04-03T04:53:39.116Z,926.39
2019-04-03T04:54:38.924Z,926.39
2019-04-03T04:55:38.975Z,926.35
2019-04-03T04:56:39.043Z,926.31
2019-04-03T04:57:41.058Z,926.29
2019-04-03T04:58:39.333Z,926.30
2019-04-03T04:59:39.151Z,926.25
2019-04-03T05:00:39.399Z,926.24
2019-04-03T05:01:39.613Z,926.24
2019-04-03T05:02:39.303Z,926.24
2019-04-03T05:03:39.337Z,926.24
2019-04-03T05:04:39.397Z,926.24
2019-04-03T05:05:39.431Z,926.23
2019-04-03T05:06:39.457Z,926.25
2019-04-03T05:07:39.486Z,926.23
2019-04-03T05:08:39.580Z,926.23
2019-04-03T05:09:39.586Z,926.23
2019-04-03T05:10:39.686Z,926.25
2019-04-03T05:11:39.704Z,926.22
2019-04-03T05:12:42.541Z,926.19
2019-04-03T05:13:39.799Z,926.21
2019-04-03T05:14:40.127Z,926.19
2019-04-03T05:15:39.864Z,926.19
2019-04-03T05:16:39.898Z,926.19
2019-04-03T05:17:39.958Z,926.17
2019-04-03T05:18:39.977Z,926.22
2019-04-03T05:19:40.079Z,926.25
2019-04-03T05:20:40.079Z,926.23
2019-04-03T05:21:40.157Z,926.25
2019-04-03T05:22:40.191Z,926.28
2019-04-03T05:23:40.442Z,926.29
2019-04-03T05:24:40.271Z,926.27
2019-04-03T05:25:40.314Z,926.28
2019-04-03T05:26:40.579Z,926.26
2019-04-03T05:27:40.501Z,926.24
2019-04-03T05:28:40.428Z,926.22
2019-04-03T05:29:40.511Z,926.23
2019-04-03T05:30:40.522Z,926.23
2019-04-03T05:31:40.656Z,926.24
2019-04-03T05:32:41.194Z,926.27
2019-04-03T05:33:42.203Z,926.29
2019-04-03T05:34:43.641Z,926.28
2019-04-03T05:35:40.770Z,926.31
2019-04-03T05:36:40.798Z,926.32
2019-04-03T05:37:40.839Z,926.30
2019-04-03T05:38:40.898Z,926.35
2019-04-03T05:39:41.128Z,926.35
2019-04-03T05:40:41.228Z,926.36
2019-04-03T05:41:41.137Z,926.35
2019-04-03T05:42:41.082Z,926.34
2019-04-03T05:43:41.409Z,926.39
2019-04-03T05:44:41.169Z,926.38
2019-04-03T05:45:42.248Z,926.37
2019-04-03T05:46:41.262Z,926.38
2019-04-03T05:47:41.433Z,926.36
2019-04-03T05:48:41.471Z,926.36
2019-04-03T05:49:41.418Z,926.33
2019-04-03T05:50:41.451Z,926.37
2019-04-03T05:51:41.506Z,926.37
2019-04-03T05:52:41.558Z,926.34
2019-04-03T05:53:41.577Z,926.36
2019-04-03T05:54:43.983Z,926.36
2019-04-03T05:55:41.834Z,926.36
2019-04-03T05:56:42.960Z,926.32
2019-04-03T05:57:44.893Z,926.34
2019-04-03T05:58:53.762Z,926.35
2019-04-03T05:59:43.592Z,926.33
2019-04-03T06:00:41.867Z,926.38
2019-04-03T06:01:45.688Z,926.39
2019-04-03T06:02:41.980Z,926.38
2019-04-03T06:03:44.814Z,926.36
2019-04-03T06:04:42.726Z,926.36
2019-04-03T06:05:44.014Z,926.36
2019-04-03T06:06:42.139Z,926.38
2019-04-03T06:07:42.199Z,926.35
2019-04-03T06:08:42.254Z,926.37
2019-04-03T06:09:42.279Z,926.38
2019-04-03T06:10:42.331Z,926.34
2019-04-03T06:11:42.392Z,926.34
2019-04-03T06:12:45.056Z,926.34
2019-04-03T06:13:42.487Z,926.34
2019-04-03T06:14:42.510Z,926.29
2019-04-03T06:15:42.806Z,926.29
2019-04-03T06:16:42.821Z,926.33
2019-04-03T06:17:42.675Z,926.30
2019-04-03T06:18:42.705Z,926.29
2019-04-03T06:19:42.739Z,926.23
2019-04-03T06:20:43.928Z,926.23
2019-04-03T06:21:45.627Z,926.20
2019-04-03T06:22:43.390Z,926.23
2019-04-03T06:23:42.985Z,926.18
2019-04-03T06:24:42.992Z,926.16
2019-04-03T06:25:43.017Z,926.15
2019-04-03T06:26:44.886Z,926.14
2019-04-03T06:27:45.809Z,926.13
2019-04-03T06:28:46.174Z,926.12
2019-04-03T06:29:43.170Z,926.15
2019-04-03T06:30:43.215Z,926.18
2019-04-03T06:31:43.300Z,926.16
2019-04-03T06:32:43.347Z,926.20
2019-04-03T06:33:43.382Z,926.20
2019-04-03T06:34:43.828Z,926.19
2019-04-03T06:35:45.234Z,926.20
2019-04-03T06:36:43.797Z,926.20
2019-04-03T06:37:43.860Z,926.20
2019-04-03T06:38:43.579Z,926.20
2019-04-03T06:39:43.653Z,926.19
2019-04-03T06:40:43.903Z,926.22
2019-04-03T06:41:43.745Z,926.25
2019-04-03T06:42:44.834Z,926.23
2019-04-03T06:43:43.807Z,926.21
2019-04-03T06:44:43.836Z,926.21
2019-04-03T06:45:44.403Z,926.17
2019-04-03T06:46:43.941Z,926.16
2019-04-03T06:47:43.985Z,926.12
2019-04-03T06:48:44.054Z,926.14
2019-04-03T06:49:44.109Z,926.12
2019-04-03T06:50:44.125Z,926.07
2019-04-03T06:51:44.697Z,926.10
2019-04-03T06:52:44.229Z,926.08
2019-04-03T06:53:44.274Z,926.07
2019-04-03T06:54:45.168Z,926.07
2019-04-03T06:55:44.377Z,926.06
2019-04-03T06:56:44.552Z,926.04
2019-04-03T06:57:44.447Z,926.06
2019-04-03T06:58:44.919Z,926.01
2019-04-03T06:59:44.549Z,926.04
2019-04-03T07:00:45.267Z,926.06
2019-04-03T07:01:44.615Z,926.07
2019-04-03T07:02:44.691Z,926.09
2019-04-03T07:03:44.820Z,926.06
2019-04-03T07:04:44.768Z,926.04
2019-04-03T07:05:45.166Z,926.06
2019-04-03T07:06:45.642Z,926.05
2019-04-03T07:07:44.896Z,926.02
2019-04-03T07:08:44.921Z,926.03
2019-04-03T07:09:44.971Z,926.00
2019-04-03T07:10:54.717Z,925.99
2019-04-03T07:11:45.073Z,925.95
2019-04-03T07:12:47.827Z,925.98
2019-04-03T07:13:45.162Z,925.93
2019-04-03T07:14:45.204Z,925.92
2019-04-03T07:15:45.248Z,925.94
2019-04-03T07:16:45.492Z,925.93
2019-04-03T07:17:45.356Z,925.93
2019-04-03T07:18:45.377Z,925.91
2019-04-03T07:19:45.434Z,925.98
2019-04-03T07:20:45.481Z,925.95
2019-04-03T07:21:45.510Z,925.97
2019-04-03T07:22:45.541Z,925.99
2019-04-03T07:23:45.780Z,925.99
2019-04-03T07:24:45.647Z,925.98
2019-04-03T07:25:45.681Z,925.98
2019-04-03T07:26:45.979Z,925.99
2019-04-03T07:27:46.050Z,925.99
2019-04-03T07:28:45.827Z,926.01
2019-04-03T07:29:48.310Z,925.98
2019-04-03T07:30:45.906Z,925.97
2019-04-03T07:31:46.018Z,925.96
2019-04-03T07:32:45.982Z,925.94
2019-04-03T07:33:46.184Z,925.95
2019-04-03T07:34:46.090Z,925.93
2019-04-03T07:35:46.125Z,925.93
2019-04-03T07:36:46.452Z,925.93
2019-04-03T07:37:46.218Z,925.87
2019-04-03T07:38:46.267Z,925.87
2019-04-03T07:39:47.739Z,925.85
2019-04-03T07:40:46.536Z,925.85
2019-04-03T07:41:46.425Z,925.83
2019-04-03T07:42:46.440Z,925.84
2019-04-03T07:43:46.488Z,925.80
2019-04-03T07:44:46.527Z,925.84
2019-04-03T07:45:46.571Z,925.85
2019-04-03T07:46:46.811Z,925.82
2019-04-03T07:47:46.706Z,925.80
2019-04-03T07:48:46.873Z,925.82
2019-04-03T07:49:46.756Z,925.80
2019-04-03T07:50:46.807Z,925.83
2019-04-03T07:51:46.825Z,925.85
2019-04-03T07:52:48.028Z,925.85
2019-04-03T07:53:46.966Z,925.82
2019-04-03T07:54:47.043Z,925.86
2019-04-03T07:55:47.149Z,925.84
2019-04-03T07:56:47.059Z,925.82
2019-04-03T07:57:47.115Z,925.90
2019-04-03T07:58:47.137Z,925.93
2019-04-03T07:59:47.289Z,925.89
2019-04-03T08:00:47.226Z,925.92
2019-04-03T08:01:47.278Z,925.92
2019-04-03T08:02:49.633Z,925.88
2019-04-03T08:03:47.425Z,925.86
2019-04-03T08:04:47.409Z,925.90
2019-04-03T08:05:47.444Z,925.85
2019-04-03T08:06:47.511Z,925.85
2019-04-03T08:07:47.544Z,925.88
2019-04-03T08:08:50.428Z,925.84
2019-04-03T08:09:47.621Z,925.91
2019-04-03T08:10:47.689Z,925.91
2019-04-03T08:11:47.785Z,925.88
2019-04-03T08:12:47.749Z,925.86
2019-04-03T08:13:47.779Z,925.89
2019-04-03T08:14:47.819Z,925.85
2019-04-03T08:15:47.881Z,925.85
2019-04-03T08:16:48.758Z,925.84
2019-04-03T08:17:49.880Z,925.86
2019-04-03T08:18:48.369Z,925.93
2019-04-03T08:19:48.065Z,925.90
2019-04-03T08:20:48.123Z,925.96
2019-04-03T08:21:48.152Z,925.90
2019-04-03T08:22:48.343Z,925.96
2019-04-03T08:23:48.372Z,925.92
2019-04-03T08:24:48.273Z,925.93
2019-04-03T08:25:49.094Z,925.94
2019-04-03T08:26:48.933Z,925.96
2019-04-03T08:27:48.424Z,925.98
2019-04-03T08:28:48.457Z,926.01
2019-04-03T08:29:48.508Z,926.00
2019-04-03T08:30:48.555Z,926.02
2019-04-03T08:31:49.038Z,926.05
2019-04-03T08:32:49.096Z,926.03
2019-04-03T08:33:48.709Z,926.07
2019-04-03T08:34:48.818Z,926.06
2019-04-03T08:35:48.765Z,926.05
2019-04-03T08:36:48.812Z,926.05
2019-04-03T08:37:49.001Z,926.08
2019-04-03T08:38:48.928Z,926.08
2019-04-03T08:39:49.908Z,926.09
2019-04-03T08:40:51.425Z,926.07
2019-04-03T08:41:49.017Z,926.06
2019-04-03T08:42:49.070Z,926.10
2019-04-03T08:43:49.388Z,926.05
2019-04-03T08:44:49.213Z,926.03
2019-04-03T08:45:49.200Z,926.07
2019-04-03T08:46:49.288Z,926.09
2019-04-03T08:47:49.270Z,926.10
2019-04-03T08:48:49.615Z,926.11
2019-04-03T08:49:49.391Z,926.13
2019-04-03T08:50:49.796Z,926.17
2019-04-03T08:51:49.470Z,926.15
2019-04-03T08:52:49.516Z,926.19
2019-04-03T08:53:49.601Z,926.18
2019-04-03T08:54:49.640Z,926.21
2019-04-03T08:55:49.648Z,926.22
2019-04-03T08:56:49.949Z,926.22
2019-04-03T08:57:52.073Z,926.20
2019-04-03T08:58:49.765Z,926.22
2019-04-03T08:59:49.827Z,926.22
2019-04-03T09:00:50.686Z,926.21
2019-04-03T09:01:49.911Z,926.24
2019-04-03T09:02:50.208Z,926.23
2019-04-03T09:03:49.977Z,926.20
2019-04-03T09:04:50.024Z,926.18
2019-04-03T09:05:50.970Z,926.18
2019-04-03T09:06:50.107Z,926.19
2019-04-03T09:07:50.147Z,926.22
2019-04-03T09:08:50.329Z,926.22
2019-04-03T09:09:50.255Z,926.19
2019-04-03T09:10:50.332Z,926.24
2019-04-03T09:11:50.462Z,926.19
2019-04-03T09:12:50.387Z,926.20
2019-04-03T09:13:50.522Z,926.14
2019-04-03T09:14:50.452Z,926.17
2019-04-03T09:15:50.554Z,926.16
2019-04-03T09:16:50.568Z,926.17
2019-04-03T09:17:50.587Z,926.17
2019-04-03T09:18:50.679Z,926.17
2019-04-03T09:19:50.887Z,926.22
2019-04-03T09:20:50.717Z,926.20
2019-04-03T09:21:51.704Z,926.22
2019-04-03T09:22:53.052Z,926.24
2019-04-03T09:23:50.846Z,926.21
2019-04-03T09:24:51.038Z,926.22
2019-04-03T09:25:50.961Z,926.21
2019-04-03T09:26:51.027Z,926.22
2019-04-03T09:27:51.043Z,926.21
2019-04-03T09:28:51.481Z,926.24
2019-04-03T09:29:51.145Z,926.21
2019-04-03T09:30:53.895Z,926.27
2019-04-03T09:31:52.033Z,926.28
2019-04-03T09:32:53.396Z,926.29
2019-04-03T09:33:51.441Z,926.38
2019-04-03T09:34:51.481Z,926.35
2019-04-03T09:35:51.364Z,926.39
2019-04-03T09:36:51.411Z,926.37
2019-04-03T09:37:51.476Z,926.42
2019-04-03T09:38:51.711Z,926.42
2019-04-03T09:39:51.627Z,926.40
2019-04-03T09:40:51.600Z,926.40
2019-04-03T09:41:51.648Z,926.41
2019-04-03T09:42:52.023Z,926.41
2019-04-03T09:43:53.915Z,926.46
2019-04-03T09:44:51.905Z,926.43
2019-04-03T09:45:51.816Z,926.45
2019-04-03T09:46:51.961Z,926.47
2019-04-03T09:47:51.891Z,926.47
2019-04-03T09:48:51.953Z,926.44
2019-04-03T09:49:52.089Z,926.55
2019-04-03T09:50:52.072Z,926.54
2019-04-03T09:51:53.071Z,926.53
2019-04-03T09:52:54.229Z,926.52
2019-04-03T09:53:52.481Z,926.55
2019-04-03T09:54:52.212Z,926.56
2019-04-03T09:55:52.471Z,926.57
2019-04-03T09:56:59.470Z,926.54
2019-04-03T09:57:53.319Z,926.54
2019-04-03T09:58:55.412Z,926.57
2019-04-03T09:59:52.608Z,926.58
2019-04-03T10:00:52.467Z,926.58
2019-04-03T10:01:52.564Z,926.60
2019-04-03T10:02:52.556Z,926.59
2019-04-03T10:03:55.351Z,926.59
2019-04-03T10:04:52.661Z,926.58
2019-04-03T10:05:53.037Z,926.60
2019-04-03T10:06:52.858Z,926.63
2019-04-03T10:07:52.810Z,926.67
2019-04-03T10:08:52.825Z,926.71
2019-04-03T10:09:54.504Z,926.73
2019-04-03T10:10:52.921Z,926.78
2019-04-03T10:11:53.008Z,926.78
2019-04-03T10:12:54.217Z,926.74
2019-04-03T10:13:53.065Z,926.74
2019-04-03T10:14:53.110Z,926.76
2019-04-03T10:15:53.154Z,926.68
2019-04-03T10:16:53.192Z,926.75
2019-04-03T10:17:53.245Z,926.72
2019-04-03T10:18:53.563Z,926.75
2019-04-03T10:19:53.324Z,926.76
2019-04-03T10:20:53.368Z,926.76
2019-04-03T10:21:53.572Z,926.82
2019-04-03T10:22:55.834Z,926.85
2019-04-03T10:23:53.494Z,926.88
2019-04-03T10:24:53.536Z,926.88
2019-04-03T10:25:53.733Z,926.89
2019-04-03T10:26:53.885Z,926.87
2019-04-03T10:27:53.739Z,926.84
2019-04-03T10:28:53.813Z,926.84
2019-04-03T10:29:55.774Z,926.87
2019-04-03T10:30:54.499Z,926.90
2019-04-03T10:31:55.737Z,926.87
2019-04-03T10:32:53.938Z,926.91
2019-04-03T10:33:54.097Z,926.92
2019-04-03T10:34:53.998Z,926.94
2019-04-03T10:35:54.124Z,926.99
2019-04-03T10:36:54.100Z,926.99
2019-04-03T10:37:54.176Z,926.97
2019-04-03T10:38:54.189Z,926.99
2019-04-03T10:39:54.282Z,927.00
2019-04-03T10:40:56.362Z,927.07
2019-04-03T10:41:54.346Z,927.00
2019-04-03T10:42:54.444Z,927.05
2019-04-03T10:43:54.704Z,927.03
2019-04-03T10:44:54.517Z,926.96
2019-04-03T10:45:54.555Z,926.99
2019-04-03T10:46:54.589Z,926.99
2019-04-03T10:47:56.587Z,926.98
2019-04-03T10:48:54.972Z,927.03
2019-04-03T10:49:55.333Z,926.98
2019-04-03T10:50:55.147Z,926.99
2019-04-03T10:51:55.143Z,926.99
2019-04-03T10:52:54.903Z,927.01
2019-04-03T10:53:54.966Z,926.98
2019-04-03T10:54:56.880Z,927.03
2019-04-03T10:55:55.067Z,927.03
2019-04-03T10:56:55.350Z,927.05
2019-04-03T10:57:55.241Z,927.03
2019-04-03T10:58:55.314Z,927.03
2019-04-03T10:59:55.641Z,927.04
2019-04-03T11:00:56.890Z,927.04
2019-04-03T11:01:55.395Z,927.06
2019-04-03T11:02:55.419Z,927.08
2019-04-03T11:03:55.501Z,927.10
2019-04-03T11:04:55.533Z,927.15
2019-04-03T11:05:55.569Z,927.14
2019-04-03T11:06:55.799Z,927.19
2019-04-03T11:07:56.039Z,927.18
2019-04-03T11:08:55.713Z,927.20
2019-04-03T11:09:55.794Z,927.22
2019-04-03T11:10:58.089Z,927.21
2019-04-03T11:11:55.927Z,927.20
2019-04-03T11:12:55.953Z,927.28
2019-04-03T11:13:56.012Z,927.31
2019-04-03T11:14:56.040Z,927.33
2019-04-03T11:15:56.101Z,927.32
2019-04-03T11:16:56.169Z,927.33
2019-04-03T11:17:56.198Z,927.27
2019-04-03T11:18:59.953Z,927.30
2019-04-03T11:19:56.331Z,927.29
2019-04-03T11:20:56.367Z,927.26
2019-04-03T11:21:56.930Z,927.27
2019-04-03T11:23:05.353Z,927.26
2019-04-03T11:23:56.935Z,927.32
2019-04-03T11:24:56.562Z,927.31
2019-04-03T11:25:56.656Z,927.35
2019-04-03T11:26:57.012Z,927.32
2019-04-03T11:27:57.182Z,927.33
2019-04-03T11:28:56.791Z,927.33
2019-04-03T11:29:57.167Z,927.28
2019-04-03T11:31:01.177Z,927.32
2019-04-03T11:31:56.954Z,927.35
2019-04-03T11:32:57.374Z,927.33
2019-04-03T11:33:57.198Z,927.33
2019-04-03T11:34:57.359Z,927.33
2019-04-03T11:35:57.782Z,927.27
2019-04-03T11:36:59.696Z,927.31
2019-04-03T11:37:57.529Z,927.27
2019-04-03T11:39:08.935Z,927.29
2019-04-03T11:40:04.221Z,927.31
2019-04-03T11:40:57.500Z,927.28
2019-04-03T11:41:57.692Z,927.27
2019-04-03T11:42:57.690Z,927.29
2019-04-03T11:43:57.625Z,927.32
2019-04-03T11:44:57.683Z,927.30
2019-04-03T11:45:58.073Z,927.33
2019-04-03T11:46:57.991Z,927.34
2019-04-03T11:47:57.851Z,927.37
2019-04-03T11:48:57.869Z,927.40
2019-04-03T11:49:57.932Z,927.40
2019-04-03T11:50:58.143Z,927.40
2019-04-03T11:51:58.970Z,927.43
2019-04-03T11:53:01.509Z,927.39
2019-04-03T11:53:58.122Z,927.41
2019-04-03T11:54:58.246Z,927.44
2019-04-03T11:55:58.683Z,927.40
2019-04-03T11:56:58.323Z,927.37
2019-04-03T11:57:58.370Z,927.36
2019-04-03T11:58:58.493Z,927.40
2019-04-03T11:59:58.885Z,927.42
2019-04-03T12:00:58.617Z,927.50
2019-04-03T12:01:58.653Z,927.47
2019-04-03T12:02:58.794Z,927.46
2019-04-03T12:03:58.689Z,927.48
2019-04-03T12:04:58.841Z,927.48
2019-04-03T12:05:58.933Z,927.58
2019-04-03T12:06:58.840Z,927.58
2019-04-03T12:07:58.914Z,927.63
2019-04-03T12:09:00.549Z,927.63
2019-04-03T12:09:59.414Z,927.63
2019-04-03T12:10:59.509Z,927.61
2019-04-03T12:11:59.137Z,927.64
2019-04-03T12:12:59.292Z,927.60
2019-04-03T12:13:59.384Z,927.63
2019-04-03T12:14:59.270Z,927.64
2019-04-03T12:15:59.467Z,927.66
2019-04-03T12:16:59.390Z,927.65
2019-04-03T12:18:01.531Z,927.58
2019-04-03T12:18:59.587Z,927.59
2019-04-03T12:19:59.882Z,927.60
2019-04-03T12:20:59.791Z,927.60
2019-04-03T12:21:59.889Z,927.56
2019-04-03T12:22:59.709Z,927.56
2019-04-03T12:23:59.788Z,927.56
2019-04-03T12:24:59.842Z,927.57
2019-04-03T12:26:00.174Z,927.62
2019-04-03T12:26:59.950Z,927.61
2019-04-03T12:28:00.006Z,927.61
2019-04-03T12:29:00.065Z,927.55